CDT,Max TemperatureF,Mean TemperatureF,Min TemperatureF,Max Dew PointF,MeanDew PointF,Min DewpointF,Max Humidity, Mean Humidity, Min Humidity, Max Sea Level PressureIn, Mean Sea Level PressureIn, Min Sea Level PressureIn, Max VisibilityMiles, Mean VisibilityMiles, Min VisibilityMiles, Max Wind SpeedMPH, Mean Wind SpeedMPH, Max Gust SpeedMPH,PrecipitationIn, CloudCover, Events, WindDirDegrees
2013-8-1,88,79,69,72,70,66,100,78,55,30.04,29.99,29.95,10,9,6,14,4,18,0.00,5,Thunderstorm,335
2013-8-2,88,76,64,69,66,62,100,73,45,30.04,30.01,29.97,10,9,4,9,2,14,0.00,2,,187
2013-8-3,85,77,69,73,71,67,97,83,69,30.09,30.03,29.99,10,10,7,10,4,14,T,6,Rain-Thunderstorm,83
2013-8-4,89,79,69,73,70,63,100,78,55,30.11,30.06,30.02,10,6,0,13,5,18,T,5,Fog,352
2013-8-5,85,76,67,70,66,63,90,71,51,30.07,30.03,29.97,10,10,10,9,2,,T,6,,351
2013-8-6,83,77,71,76,72,68,100,87,74,30.04,29.98,29.94,10,8,1,13,3,14,0.41,7,Rain-Thunderstorm,127
2013-8-7,89,81,72,77,73,70,100,84,68,30.02,29.97,29.93,10,9,0,22,4,29,0.22,6,Rain-Thunderstorm,150
2013-8-8,89,80,70,79,73,69,100,86,72,30.03,29.98,29.93,10,10,6,16,4,21,0.06,6,Rain-Thunderstorm,134
2013-8-9,89,81,72,76,73,71,100,80,59,30.06,30.02,29.99,10,9,7,12,5,15,0.00,5,,160
2013-8-10,85,79,72,75,73,71,100,87,74,30.15,30.10,30.05,10,8,1,14,3,16,0.42,4,Rain-Thunderstorm,202
2013-8-11,89,80,71,77,73,70,100,82,63,30.15,30.11,30.05,10,10,9,14,4,18,0.00,4,,187
2013-8-12,89,80,71,75,73,70,100,80,59,30.13,30.05,29.97,10,10,7,21,4,26,0.15,4,Rain-Thunderstorm,238
2013-8-13,87,80,73,74,72,69,94,80,65,30.00,29.96,29.90,10,10,5,13,4,16,T,5,Rain,317
2013-8-14,83,74,64,68,64,57,90,71,51,30.04,29.99,29.94,10,10,8,15,9,25,0.00,4,,21
2013-8-15,79,69,58,68,63,57,97,82,67,30.05,30.02,30.00,10,10,9,14,6,21,0.00,4,,98
2013-8-16,74,70,65,64,62,61,87,78,68,30.11,30.06,30.02,10,10,10,14,6,18,0.00,8,,110
2013-8-17,71,69,66,65,64,63,93,86,79,30.13,30.09,30.05,10,8,2,13,6,15,T,8,Rain,109
2013-8-18,76,71,66,70,67,64,100,87,74,30.18,30.12,30.08,10,8,2,12,3,15,0.04,7,Rain,150
2013-8-19,84,76,67,72,69,66,100,82,63,30.14,30.08,30.02,10,10,6,10,4,13,0.03,5,Rain,101
2013-8-20,88,79,70,74,71,69,100,80,59,30.16,30.09,30.05,10,10,7,23,6,30,T,5,Rain,121
2013-8-21,86,79,72,73,72,68,100,83,65,30.20,30.14,30.09,10,9,6,14,6,17,0.01,5,Rain-Thunderstorm,128
2013-8-22,90,80,69,74,71,68,100,78,56,30.16,30.10,30.05,10,9,1,18,3,24,0.47,5,Rain-Thunderstorm,91
2013-8-23,91,80,69,74,70,68,100,76,52,30.10,30.05,29.99,10,7,0,10,2,13,0.00,2,Fog,18
2013-8-24,89,79,69,72,70,68,100,78,55,30.20,30.12,30.05,10,8,2,12,5,15,0.00,1,,113
2013-8-25,85,76,67,70,66,64,90,71,51,30.32,30.26,30.20,10,10,10,14,6,18,0.00,1,,124
2013-8-26,87,75,63,66,63,60,93,67,40,30.30,30.24,30.16,10,10,10,8,3,,0.00,1,,113
2013-8-27,88,75,62,69,65,62,100,73,45,30.17,30.12,30.05,10,9,7,8,2,12,0.00,2,,269
2013-8-28,91,78,64,71,67,64,97,71,44,30.09,30.06,30.00,10,6,0,8,2,13,0.00,1,Fog,307
2013-8-29,94,81,67,72,70,67,100,72,44,30.07,30.02,29.96,10,7,0,9,2,15,0.00,1,Fog,316
2013-8-30,94,83,71,74,72,70,100,73,46,30.01,29.96,29.91,10,8,4,10,3,,0.00,2,,170
2013-8-31,95,84,73,74,71,68,94,69,43,29.95,29.91,29.86,10,9,6,14,3,20,0.00,2,,110